Punta Gialla — IWUC — position and weather

sailwx.info

Track history (hours):
 
Tides and Currents Weather Stations Pressure Air Temp Water Temp Dewpoint Dewpoint Depression Visibility Wind Speed Wind Dir Waves Ship Positions

Punta Gialla

Last reported at 2015-Sep-02 22:13 UTC. Time now 2015-Sep-03 04:29 UTC.
Position N 44°24' E 008°54'.

Length 52 m; draft 1.8 m.

Type: Tanker. MMSI: 247077500.

Date/timePositionNaut miles runAvg speedWind from/ knotsBaromVisibWave heightAir tempDewpointWater temp
2015-Sep-02 22:13N 44°24' E 008°54'1 1.1
2015-Sep-02 21:33N 44°24' E 008°55'9 8.5
2015-Sep-02 20:33N 44°17' E 009°03'9 8.9
2015-Sep-02 19:33N 44°11' E 009°12'18 8.9
2015-Sep-02 17:33N 44°04' E 009°35'9 8.8
2015-Sep-02 16:33N 44°00' E 009°46'6 5.5
2015-Sep-02 15:33N 44°04' E 009°51'2 2.4
2015-Sep-02 14:33N 44°06' E 009°50'0 0.0
2015-Sep-02 13:33N 44°06' E 009°50'0 0.1
2015-Sep-02 12:34N 44°06' E 009°51'6 6.2
2015-Sep-02 11:34N 44°01' E 009°55'5 5.0
2015-Sep-02 10:34N 43°60' E 009°49'6 6.4
2015-Sep-02 09:33N 44°02' E 009°40'7 6.7
2015-Sep-02 08:33N 44°04' E 009°32'8 7.7
2015-Sep-02 07:34N 44°07' E 009°22'10 8.0
2015-Sep-02 06:16N 44°12' E 009°08'6 8.2
2015-Sep-02 05:33N 44°16' E 009°03'8 8.4
2015-Sep-02 04:33N 44°23' E 008°56'2 1.9
2015-Sep-02 03:33N 44°24' E 008°54'0 0.0
2015-Sep-02 02:33N 44°24' E 008°54'0 0.0
2015-Sep-02 01:33N 44°24' E 008°54'0 0.0
2015-Sep-02 00:33N 44°24' E 008°54'0 0.0
2015-Sep-01 23:33N 44°24' E 008°54'0 0.0
2015-Sep-01 22:33N 44°24' E 008°54'3 3.3
2015-Sep-01 21:33N 44°25' E 008°50'0 0.0
2015-Sep-01 20:33N 44°25' E 008°50'0 0.0
2015-Sep-01 19:33N 44°25' E 008°50'0 0.0
2015-Sep-01 18:33N 44°25' E 008°50'0 0.0
2015-Sep-01 17:33N 44°25' E 008°50'0 0.3
2015-Sep-01 16:33N 44°25' E 008°50'0 0.4
2015-Sep-01 15:33N 44°25' E 008°49'4 3.9
2015-Sep-01 14:33N 44°24' E 008°54'0 0.2
2015-Sep-01 13:33N 44°24' E 008°54'0 0.0
2015-Sep-01 12:33N 44°24' E 008°54'0 0.0
2015-Sep-01 11:33N 44°24' E 008°54'0 0.0
2015-Sep-01 10:33N 44°24' E 008°54'0 0.0
2015-Sep-01 09:33N 44°24' E 008°54'0 0.0
2015-Sep-01 08:33N 44°24' E 008°54'0 0.0
2015-Sep-01 02:24N 44°24' E 008°54'0 0.1
2015-Sep-01 01:33N 44°24' E 008°54'18 7.6
2015-Aug-31 23:15N 44°11' E 009°11'6 8.6
2015-Aug-31 22:33N 44°09' E 009°19'9 8.5
2015-Aug-31 21:28N 44°05' E 009°30'8 8.6
2015-Aug-31 20:33N 44°02' E 009°40'8 8.2
2015-Aug-31 19:33N 44°00' E 009°52'34 3.8
2015-Aug-31 10:30N 44°13' E 009°08'8 7.9
2015-Aug-31 09:33N 44°18' E 008°60'7 7.2
2015-Aug-31 08:33N 44°24' E 008°54'0 0.0
2015-Aug-31 07:34N 44°24' E 008°54'0 0.0
2015-Aug-31 06:34N 44°24' E 008°54'0 0.0
2015-Aug-29 20:33N 44°24' E 008°54'0 0.0
2015-Aug-29 19:33N 44°24' E 008°54'0 0.5
2015-Aug-29 18:33N 44°25' E 008°55'0 0.2
2015-Aug-29 17:33N 44°25' E 008°55'1 0.5
2015-Aug-29 16:33N 44°24' E 008°54'0 0.0
2015-Aug-29 15:33N 44°24' E 008°54'0 0.0
2015-Aug-29 14:33N 44°24' E 008°54'0 0.0
2015-Aug-29 13:33N 44°24' E 008°54'0 0.0
2015-Aug-29 12:34N 44°24' E 008°54'1 0.7
2015-Aug-29 11:33N 44°25' E 008°55'0 0.0
2015-Aug-29 10:33N 44°25' E 008°55'0 0.1
2015-Aug-29 09:33N 44°25' E 008°55'1 0.6
2015-Aug-29 08:33N 44°24' E 008°55'1 0.0
2015-Aug-28 19:13N 44°24' E 008°54'0 0.0
2015-Aug-28 18:31N 44°24' E 008°54'0 0.1
2015-Aug-28 12:04N 44°24' E 008°55'0 0.0
2015-Aug-28 11:33N 44°24' E 008°55'0 0.0
2015-Aug-28 10:33N 44°24' E 008°55'0 0.1
2015-Aug-28 09:33N 44°24' E 008°55'0 0.1
2015-Aug-28 08:34N 44°24' E 008°55'1 0.0
2015-Aug-27 19:10N 44°24' E 008°54'0 0.0
2015-Aug-27 18:34N 44°24' E 008°54'0 0.3
2015-Aug-27 17:33N 44°24' E 008°54'8 8.1
2015-Aug-27 16:33N 44°20' E 008°44'9 8.9
2015-Aug-27 15:33N 44°16' E 008°33'4 4.4
2015-Aug-27 14:33N 44°16' E 008°27'0 0.0
2015-Aug-27 13:33N 44°16' E 008°27'0 0.1
2015-Aug-27 12:34N 44°16' E 008°27'0 0.0
2015-Aug-27 11:33N 44°16' E 008°27'0 0.0
2015-Aug-27 10:33N 44°16' E 008°27'0 0.0
2015-Aug-27 09:34N 44°16' E 008°27'4 3.6
2015-Aug-27 08:34N 44°16' E 008°32'9 8.7
2015-Aug-27 07:33N 44°19' E 008°43'8 8.2
2015-Aug-27 06:33N 44°24' E 008°53'1 0.1
2015-Aug-26 18:31N 44°24' E 008°54'0 0.0
2015-Aug-26 17:33N 44°24' E 008°54'0 0.3
2015-Aug-26 16:33N 44°24' E 008°54'0 0.0
2015-Aug-26 15:33N 44°24' E 008°54'0 0.0
2015-Aug-26 14:33N 44°24' E 008°54'0 0.3
2015-Aug-26 13:33N 44°24' E 008°54'0 0.0
2015-Aug-26 12:33N 44°24' E 008°54'0 0.0
2015-Aug-26 11:33N 44°24' E 008°54'0 0.0
2015-Aug-26 10:33N 44°24' E 008°54'0 0.0
2015-Aug-26 09:33N 44°24' E 008°54'0 0.1
2015-Aug-26 08:33N 44°24' E 008°54'0 0.0
2015-Aug-26 02:33N 44°24' E 008°54'0 0.0
2015-Aug-26 01:32N 44°24' E 008°54'0 0.0
2015-Aug-26 00:33N 44°24' E 008°54'1 0.9
2015-Aug-25 23:33N 44°24' E 008°53'0 0.0
2015-Aug-25 22:33N 44°24' E 008°53'0 0.0
2015-Aug-25 21:33N 44°24' E 008°53'0 0.0
2015-Aug-25 20:33N 44°24' E 008°53'0 0.0
2015-Aug-25 19:33N 44°24' E 008°53'0 0.0
2015-Aug-25 18:33N 44°24' E 008°53'0 0.0
2015-Aug-25 17:33N 44°24' E 008°53'0 0.0
2015-Aug-25 16:33N 44°24' E 008°53'0 0.0
2015-Aug-25 15:33N 44°24' E 008°53'0 0.0
2015-Aug-25 14:33N 44°24' E 008°53'0 0.0
2015-Aug-25 13:33N 44°24' E 008°53'0 0.0
2015-Aug-25 12:33N 44°24' E 008°53'0 0.0
2015-Aug-25 11:33N 44°24' E 008°53'0 0.0
2015-Aug-25 10:33N 44°24' E 008°53'0 0.0
2015-Aug-25 09:33N 44°24' E 008°53'1 0.9
2015-Aug-25 08:33N 44°24' E 008°54'0 0.0
2015-Aug-25 07:33N 44°24' E 008°54'0 0.4
2015-Aug-25 06:33N 44°24' E 008°55'0 0.0
2015-Aug-24 17:33N 44°24' E 008°55'0 0.0
2015-Aug-24 16:33N 44°24' E 008°55'0 0.0
2015-Aug-24 15:33N 44°24' E 008°55'0 0.0
2015-Aug-24 14:33N 44°24' E 008°55'0 0.0
2015-Aug-24 13:34N 44°24' E 008°55'0 0.0
2015-Aug-24 12:34N 44°24' E 008°55'3 3.3
2015-Aug-24 11:34N 44°24' E 008°50'2 2.2
2015-Aug-24 10:34N 44°25' E 008°48'0 0.0
2015-Aug-24 09:34N 44°25' E 008°48'0 0.0
2015-Aug-24 08:34N 44°25' E 008°48'0 0.0
2015-Aug-24 07:33N 44°25' E 008°48'4 3.6
2015-Aug-24 06:33N 44°24' E 008°53'  
Track history (hours):
 
Tides and Currents Weather Stations Pressure Air Temp Water Temp Dewpoint Dewpoint Depression Visibility Wind Speed Wind Dir Waves Ship Positions

Punta Gialla

Last reported at 2015-Sep-02 22:13 UTC. Time now 2015-Sep-03 04:29 UTC.
Position N 44°24' E 008°54'.

Length 52 m; draft 1.8 m.

Type: Tanker. MMSI: 247077500.

Date/timePositionNaut miles runAvg speedWind from/ knotsBaromVisibWave heightAir tempDewpointWater temp
2015-Sep-02 22:13N 44°24' E 008°54'1 1.1
2015-Sep-02 21:33N 44°24' E 008°55'9 8.5
2015-Sep-02 20:33N 44°17' E 009°03'9 8.9
2015-Sep-02 19:33N 44°11' E 009°12'18 8.9
2015-Sep-02 17:33N 44°04' E 009°35'9 8.8
2015-Sep-02 16:33N 44°00' E 009°46'6 5.5
2015-Sep-02 15:33N 44°04' E 009°51'2 2.4
2015-Sep-02 14:33N 44°06' E 009°50'0 0.0
2015-Sep-02 13:33N 44°06' E 009°50'0 0.1
2015-Sep-02 12:34N 44°06' E 009°51'6 6.2
2015-Sep-02 11:34N 44°01' E 009°55'5 5.0
2015-Sep-02 10:34N 43°60' E 009°49'6 6.4
2015-Sep-02 09:33N 44°02' E 009°40'7 6.7
2015-Sep-02 08:33N 44°04' E 009°32'8 7.7
2015-Sep-02 07:34N 44°07' E 009°22'10 8.0
2015-Sep-02 06:16N 44°12' E 009°08'6 8.2
2015-Sep-02 05:33N 44°16' E 009°03'8 8.4
2015-Sep-02 04:33N 44°23' E 008°56'2 1.9
2015-Sep-02 03:33N 44°24' E 008°54'0 0.0
2015-Sep-02 02:33N 44°24' E 008°54'0 0.0
2015-Sep-02 01:33N 44°24' E 008°54'0 0.0
2015-Sep-02 00:33N 44°24' E 008°54'0 0.0
2015-Sep-01 23:33N 44°24' E 008°54'0 0.0
2015-Sep-01 22:33N 44°24' E 008°54'3 3.3
2015-Sep-01 21:33N 44°25' E 008°50'0 0.0
2015-Sep-01 20:33N 44°25' E 008°50'0 0.0
2015-Sep-01 19:33N 44°25' E 008°50'0 0.0
2015-Sep-01 18:33N 44°25' E 008°50'0 0.0
2015-Sep-01 17:33N 44°25' E 008°50'0 0.3
2015-Sep-01 16:33N 44°25' E 008°50'0 0.4
2015-Sep-01 15:33N 44°25' E 008°49'4 3.9
2015-Sep-01 14:33N 44°24' E 008°54'0 0.2
2015-Sep-01 13:33N 44°24' E 008°54'0 0.0
2015-Sep-01 12:33N 44°24' E 008°54'0 0.0
2015-Sep-01 11:33N 44°24' E 008°54'0 0.0
2015-Sep-01 10:33N 44°24' E 008°54'0 0.0
2015-Sep-01 09:33N 44°24' E 008°54'0 0.0
2015-Sep-01 08:33N 44°24' E 008°54'0 0.0
2015-Sep-01 02:24N 44°24' E 008°54'0 0.1
2015-Sep-01 01:33N 44°24' E 008°54'18 7.6
2015-Aug-31 23:15N 44°11' E 009°11'6 8.6
2015-Aug-31 22:33N 44°09' E 009°19'9 8.5
2015-Aug-31 21:28N 44°05' E 009°30'8 8.6
2015-Aug-31 20:33N 44°02' E 009°40'8 8.2
2015-Aug-31 19:33N 44°00' E 009°52'34 3.8
2015-Aug-31 10:30N 44°13' E 009°08'8 7.9
2015-Aug-31 09:33N 44°18' E 008°60'7 7.2
2015-Aug-31 08:33N 44°24' E 008°54'0 0.0
2015-Aug-31 07:34N 44°24' E 008°54'0 0.0
2015-Aug-31 06:34N 44°24' E 008°54'0 0.0
2015-Aug-29 20:33N 44°24' E 008°54'0 0.0
2015-Aug-29 19:33N 44°24' E 008°54'0 0.5
2015-Aug-29 18:33N 44°25' E 008°55'0 0.2
2015-Aug-29 17:33N 44°25' E 008°55'1 0.5
2015-Aug-29 16:33N 44°24' E 008°54'0 0.0
2015-Aug-29 15:33N 44°24' E 008°54'0 0.0
2015-Aug-29 14:33N 44°24' E 008°54'0 0.0
2015-Aug-29 13:33N 44°24' E 008°54'0 0.0
2015-Aug-29 12:34N 44°24' E 008°54'1 0.7
2015-Aug-29 11:33N 44°25' E 008°55'0 0.0
2015-Aug-29 10:33N 44°25' E 008°55'0 0.1
2015-Aug-29 09:33N 44°25' E 008°55'1 0.6
2015-Aug-29 08:33N 44°24' E 008°55'1 0.0
2015-Aug-28 19:13N 44°24' E 008°54'0 0.0
2015-Aug-28 18:31N 44°24' E 008°54'0 0.1
2015-Aug-28 12:04N 44°24' E 008°55'0 0.0
2015-Aug-28 11:33N 44°24' E 008°55'0 0.0
2015-Aug-28 10:33N 44°24' E 008°55'0 0.1
2015-Aug-28 09:33N 44°24' E 008°55'0 0.1
2015-Aug-28 08:34N 44°24' E 008°55'1 0.0
2015-Aug-27 19:10N 44°24' E 008°54'0 0.0
2015-Aug-27 18:34N 44°24' E 008°54'0 0.3
2015-Aug-27 17:33N 44°24' E 008°54'8 8.1
2015-Aug-27 16:33N 44°20' E 008°44'9 8.9
2015-Aug-27 15:33N 44°16' E 008°33'4 4.4
2015-Aug-27 14:33N 44°16' E 008°27'0 0.0
2015-Aug-27 13:33N 44°16' E 008°27'0 0.1
2015-Aug-27 12:34N 44°16' E 008°27'0 0.0
2015-Aug-27 11:33N 44°16' E 008°27'0 0.0
2015-Aug-27 10:33N 44°16' E 008°27'0 0.0
2015-Aug-27 09:34N 44°16' E 008°27'4 3.6
2015-Aug-27 08:34N 44°16' E 008°32'9 8.7
2015-Aug-27 07:33N 44°19' E 008°43'8 8.2
2015-Aug-27 06:33N 44°24' E 008°53'1 0.1
2015-Aug-26 18:31N 44°24' E 008°54'0 0.0
2015-Aug-26 17:33N 44°24' E 008°54'0 0.3
2015-Aug-26 16:33N 44°24' E 008°54'0 0.0
2015-Aug-26 15:33N 44°24' E 008°54'0 0.0
2015-Aug-26 14:33N 44°24' E 008°54'0 0.3
2015-Aug-26 13:33N 44°24' E 008°54'0 0.0
2015-Aug-26 12:33N 44°24' E 008°54'0 0.0
2015-Aug-26 11:33N 44°24' E 008°54'0 0.0
2015-Aug-26 10:33N 44°24' E 008°54'0 0.0
2015-Aug-26 09:33N 44°24' E 008°54'0 0.1
2015-Aug-26 08:33N 44°24' E 008°54'0 0.0
2015-Aug-26 02:33N 44°24' E 008°54'0 0.0
2015-Aug-26 01:32N 44°24' E 008°54'0 0.0
2015-Aug-26 00:33N 44°24' E 008°54'1 0.9
2015-Aug-25 23:33N 44°24' E 008°53'0 0.0
2015-Aug-25 22:33N 44°24' E 008°53'0 0.0
2015-Aug-25 21:33N 44°24' E 008°53'0 0.0
2015-Aug-25 20:33N 44°24' E 008°53'0 0.0
2015-Aug-25 19:33N 44°24' E 008°53'0 0.0
2015-Aug-25 18:33N 44°24' E 008°53'0 0.0
2015-Aug-25 17:33N 44°24' E 008°53'0 0.0
2015-Aug-25 16:33N 44°24' E 008°53'0 0.0
2015-Aug-25 15:33N 44°24' E 008°53'0 0.0
2015-Aug-25 14:33N 44°24' E 008°53'0 0.0
2015-Aug-25 13:33N 44°24' E 008°53'0 0.0
2015-Aug-25 12:33N 44°24' E 008°53'0 0.0
2015-Aug-25 11:33N 44°24' E 008°53'0 0.0
2015-Aug-25 10:33N 44°24' E 008°53'0 0.0
2015-Aug-25 09:33N 44°24' E 008°53'1 0.9
2015-Aug-25 08:33N 44°24' E 008°54'0 0.0
2015-Aug-25 07:33N 44°24' E 008°54'0 0.4
2015-Aug-25 06:33N 44°24' E 008°55'0 0.0
2015-Aug-24 17:33N 44°24' E 008°55'0 0.0
2015-Aug-24 16:33N 44°24' E 008°55'0 0.0
2015-Aug-24 15:33N 44°24' E 008°55'0 0.0
2015-Aug-24 14:33N 44°24' E 008°55'0 0.0
2015-Aug-24 13:34N 44°24' E 008°55'0 0.0
2015-Aug-24 12:34N 44°24' E 008°55'3 3.3
2015-Aug-24 11:34N 44°24' E 008°50'2 2.2
2015-Aug-24 10:34N 44°25' E 008°48'0 0.0
2015-Aug-24 09:34N 44°25' E 008°48'0 0.0
2015-Aug-24 08:34N 44°25' E 008°48'0 0.0
2015-Aug-24 07:33N 44°25' E 008°48'4 3.6
2015-Aug-24 06:33N 44°24' E 008°53'  

Dump ship's entire track history